createdAt,value
2023-01-01T00:00:25.760Z,100.00
2023-01-01T00:31:22.289Z,100.00
2023-01-01T00:32:24.679Z,100.00
2023-01-01T00:33:27.020Z,100.00
2023-01-01T00:34:29.309Z,100.00
2023-01-01T00:35:31.602Z,100.00
2023-01-01T00:36:33.893Z,100.00
2023-01-01T00:37:37.703Z,100.00
2023-01-01T00:38:44.781Z,100.00
2023-01-01T00:39:47.289Z,100.00
2023-01-01T00:40:49.765Z,100.00
2023-01-01T00:41:52.020Z,100.00
2023-01-01T00:42:54.292Z,100.00
2023-01-01T00:43:56.552Z,100.00
2023-01-01T00:44:58.805Z,100.00
2023-01-01T00:46:01.146Z,100.00
2023-01-01T00:47:03.601Z,100.00
2023-01-01T00:48:06.095Z,100.00
2023-01-01T00:49:08.364Z,100.00
2023-01-01T00:50:10.668Z,100.00
2023-01-01T00:51:13.284Z,100.00
2023-01-01T00:52:15.498Z,100.00
2023-01-01T00:53:18.139Z,100.00
2023-01-01T00:54:20.348Z,100.00
2023-01-01T00:55:22.553Z,100.00
2023-01-01T00:56:24.875Z,100.00
2023-01-01T00:57:27.112Z,100.00
2023-01-01T00:58:29.376Z,100.00
2023-01-01T00:59:31.662Z,100.00
2023-01-01T01:00:34.224Z,100.00
2023-01-01T01:01:37.029Z,100.00
2023-01-01T01:02:39.518Z,100.00
2023-01-01T01:03:41.877Z,100.00
2023-01-01T01:04:44.097Z,100.00
2023-01-01T01:05:46.312Z,100.00
2023-01-01T01:06:48.802Z,100.00
2023-01-01T01:07:51.068Z,100.00
2023-01-01T01:08:53.459Z,100.00
2023-01-01T01:09:55.860Z,100.00
2023-01-01T01:11:12.758Z,100.00
2023-01-01T01:12:18.124Z,100.00
2023-01-01T01:13:21.792Z,100.00
2023-01-01T01:14:24.070Z,100.00
2023-01-01T01:15:26.313Z,100.00
2023-01-01T01:16:31.305Z,100.00
2023-01-01T01:17:34.260Z,100.00
2023-01-01T01:18:37.146Z,100.00
2023-01-01T01:19:39.359Z,100.00
2023-01-01T01:20:49.895Z,100.00
2023-01-01T01:21:52.278Z,100.00
2023-01-01T01:22:54.609Z,100.00
2023-01-01T01:24:01.510Z,100.00
2023-01-01T01:25:05.714Z,100.00
2023-01-01T01:26:25.585Z,100.00
2023-01-01T01:27:27.848Z,100.00
2023-01-01T01:28:31.056Z,100.00
2023-01-01T01:29:33.428Z,100.00
2023-01-01T01:30:38.139Z,100.00
2023-01-01T01:31:40.512Z,100.00
2023-01-01T01:32:42.811Z,100.00
2023-01-01T01:33:46.386Z,100.00
2023-01-01T01:34:48.975Z,100.00
2023-01-01T01:35:54.918Z,100.00
2023-01-01T01:36:57.171Z,100.00
2023-01-01T01:37:59.522Z,100.00
2023-01-01T01:39:01.790Z,100.00
2023-01-01T01:40:04.727Z,100.00
2023-01-01T01:41:07.632Z,100.00
2023-01-01T01:42:17.626Z,100.00
2023-01-01T01:43:23.130Z,100.00
2023-01-01T01:44:51.218Z,100.00
2023-01-01T01:45:58.802Z,100.00
2023-01-01T01:47:02.559Z,100.00
2023-01-01T01:48:04.965Z,100.00
2023-01-01T01:49:21.454Z,100.00
2023-01-01T01:50:27.725Z,100.00
2023-01-01T01:51:38.253Z,100.00
2023-01-01T01:52:47.700Z,100.00
2023-01-01T01:53:54.451Z,100.00
2023-01-01T01:54:57.677Z,100.00
2023-01-01T01:56:03.051Z,100.00
2023-01-01T01:57:09.355Z,100.00
2023-01-01T01:58:14.800Z,100.00
2023-01-01T01:59:20.264Z,100.00
2023-01-01T02:01:37.913Z,100.00
2023-01-01T02:03:18.915Z,100.00
2023-01-01T02:04:21.829Z,100.00
2023-01-01T02:05:25.320Z,100.00
2023-01-01T02:06:29.175Z,100.00
2023-01-01T02:07:34.229Z,100.00
2023-01-01T02:08:37.231Z,100.00
2023-01-01T02:09:39.589Z,100.00
2023-01-01T02:10:42.421Z,100.00
2023-01-01T02:11:44.643Z,100.00
2023-01-01T02:12:47.251Z,100.00
2023-01-01T02:13:50.588Z,100.00
2023-01-01T02:14:52.828Z,100.00
2023-01-01T02:15:59.140Z,100.00
2023-01-01T02:17:27.384Z,100.00
2023-01-01T02:18:37.769Z,100.00
2023-01-01T02:19:58.995Z,100.00
2023-01-01T02:21:11.319Z,100.00
2023-01-01T02:22:36.750Z,100.00
2023-01-01T02:23:48.037Z,100.00
2023-01-01T02:25:11.408Z,100.00
2023-01-01T02:26:38.762Z,100.00
2023-01-01T02:28:22.033Z,100.00
2023-01-01T02:29:33.291Z,100.00
2023-01-01T02:30:39.120Z,100.00
2023-01-01T02:31:54.316Z,100.00
2023-01-01T02:33:02.806Z,100.00
2023-01-01T02:34:09.942Z,100.00
2023-01-01T02:35:38.642Z,100.00
2023-01-01T02:36:48.845Z,100.00
2023-01-01T02:37:56.433Z,100.00
2023-01-01T02:39:01.777Z,100.00
2023-01-01T02:40:04.378Z,100.00
2023-01-01T02:41:35.154Z,100.00
2023-01-01T02:42:37.614Z,100.00
2023-01-01T02:43:40.384Z,100.00
2023-01-01T02:44:46.896Z,100.00
2023-01-01T02:45:49.384Z,100.00
2023-01-01T02:46:51.972Z,100.00
2023-01-01T02:47:54.208Z,100.00
2023-01-01T02:48:56.525Z,100.00
2023-01-01T02:50:08.363Z,100.00
2023-01-01T02:51:23.169Z,100.00
2023-01-01T02:52:49.939Z,100.00
2023-01-01T02:54:02.862Z,100.00
2023-01-01T02:55:17.406Z,100.00
2023-01-01T02:56:25.371Z,100.00
2023-01-01T02:57:38.649Z,100.00
2023-01-01T02:59:23.233Z,100.00
2023-01-01T03:00:29.445Z,100.00
2023-01-01T03:01:43.976Z,100.00
2023-01-01T03:03:11.051Z,100.00
2023-01-01T03:04:25.949Z,100.00
2023-01-01T03:06:00.764Z,100.00
2023-01-01T03:07:32.936Z,100.00
2023-01-01T03:09:09.126Z,100.00
2023-01-01T03:10:24.060Z,100.00
2023-01-01T03:11:42.579Z,100.00
2023-01-01T03:12:53.511Z,100.00
2023-01-01T03:14:07.060Z,100.00
2023-01-01T03:15:18.600Z,100.00
2023-01-01T03:16:45.548Z,100.00
2023-01-01T03:17:59.830Z,100.00
2023-01-01T03:19:26.886Z,100.00
2023-01-01T03:20:33.301Z,100.00
2023-01-01T03:21:57.931Z,100.00
2023-01-01T03:23:06.759Z,100.00
2023-01-01T03:24:15.905Z,100.00
2023-01-01T03:25:24.005Z,100.00
2023-01-01T03:26:28.100Z,100.00
2023-01-01T03:27:43.881Z,100.00
2023-01-01T03:28:58.859Z,100.00
2023-01-01T03:30:08.203Z,100.00
2023-01-01T03:31:15.098Z,100.00
2023-01-01T03:32:22.495Z,100.00
2023-01-01T03:33:50.687Z,100.00
2023-01-01T03:34:57.183Z,100.00
2023-01-01T03:36:03.951Z,100.00
2023-01-01T03:37:13.945Z,100.00
2023-01-01T03:38:40.581Z,100.00
2023-01-01T03:39:51.065Z,100.00
2023-01-01T03:41:01.203Z,100.00
2023-01-01T03:42:40.743Z,100.00
2023-01-01T03:43:49.703Z,100.00
2023-01-01T03:45:05.228Z,100.00
2023-01-01T03:46:09.961Z,100.00
2023-01-01T03:47:13.124Z,100.00
2023-01-01T03:48:15.439Z,100.00
2023-01-01T03:49:18.331Z,100.00
2023-01-01T03:50:24.165Z,100.00
2023-01-01T03:51:41.886Z,100.00
2023-01-01T03:52:57.642Z,100.00
2023-01-01T03:54:07.110Z,100.00
2023-01-01T03:55:19.615Z,100.00
2023-01-01T03:56:46.005Z,100.00
2023-01-01T03:57:53.949Z,100.00
2023-01-01T03:59:14.424Z,100.00
2023-01-01T04:00:46.677Z,100.00
2023-01-01T04:01:53.625Z,100.00
2023-01-01T04:02:57.433Z,100.00
2023-01-01T04:04:01.277Z,100.00
2023-01-01T04:05:05.142Z,100.00
2023-01-01T04:06:08.722Z,100.00
2023-01-01T04:07:15.077Z,100.00
2023-01-01T04:08:18.193Z,100.00
2023-01-01T04:09:25.575Z,100.00
2023-01-01T04:10:30.925Z,100.00
2023-01-01T04:11:53.420Z,100.00
2023-01-01T04:12:57.683Z,100.00
2023-01-01T04:13:59.908Z,100.00
2023-01-01T04:15:02.132Z,100.00
2023-01-01T04:16:04.661Z,100.00
2023-01-01T04:17:09.213Z,100.00
2023-01-01T04:18:11.635Z,100.00
2023-01-01T04:19:13.844Z,100.00
2023-01-01T04:20:16.812Z,100.00
2023-01-01T04:21:19.141Z,100.00
2023-01-01T04:22:23.276Z,100.00
2023-01-01T04:23:25.733Z,100.00
2023-01-01T04:24:28.402Z,100.00
2023-01-01T04:25:30.955Z,100.00
2023-01-01T04:26:33.146Z,100.00
2023-01-01T04:27:35.647Z,100.00
2023-01-01T04:28:37.949Z,100.00
2023-01-01T04:29:41.843Z,100.00
2023-01-01T04:31:45.817Z,100.00
2023-01-01T04:32:48.031Z,100.00
2023-01-01T04:33:53.939Z,100.00
2023-01-01T04:34:56.136Z,100.00
2023-01-01T04:36:06.793Z,100.00
2023-01-01T04:37:13.116Z,100.00
2023-01-01T04:38:16.114Z,100.00
2023-01-01T04:39:18.591Z,100.00
2023-01-01T04:40:20.859Z,100.00
2023-01-01T04:41:23.123Z,100.00
2023-01-01T04:42:25.378Z,100.00
2023-01-01T04:43:28.155Z,100.00
2023-01-01T04:44:30.414Z,100.00
2023-01-01T04:45:32.722Z,100.00
2023-01-01T04:46:35.022Z,100.00
2023-01-01T04:47:37.690Z,100.00
2023-01-01T04:48:39.931Z,100.00
2023-01-01T04:49:42.214Z,100.00
2023-01-01T04:50:44.400Z,100.00
2023-01-01T04:51:47.085Z,100.00
2023-01-01T04:52:51.285Z,100.00
2023-01-01T04:53:53.687Z,100.00
2023-01-01T04:54:56.002Z,100.00
2023-01-01T04:56:15.718Z,100.00
2023-01-01T04:57:17.967Z,100.00
2023-01-01T04:58:20.213Z,100.00
2023-01-01T04:59:22.655Z,100.00
2023-01-01T05:00:24.902Z,100.00
2023-01-01T05:01:29.031Z,100.00
2023-01-01T05:02:31.484Z,100.00
2023-01-01T05:03:33.782Z,100.00
2023-01-01T05:04:36.174Z,100.00
2023-01-01T05:05:38.415Z,100.00
2023-01-01T05:06:40.768Z,100.00
2023-01-01T05:07:43.050Z,100.00
2023-01-01T05:08:47.541Z,100.00
2023-01-01T05:09:49.913Z,100.00
2023-01-01T05:10:52.148Z,100.00
2023-01-01T05:11:55.824Z,100.00
2023-01-01T05:12:58.072Z,100.00
2023-01-01T05:14:01.170Z,100.00
2023-01-01T05:15:03.561Z,100.00
2023-01-01T05:16:07.672Z,100.00
2023-01-01T05:17:09.921Z,100.00
2023-01-01T05:18:12.164Z,100.00
2023-01-01T05:19:14.441Z,100.00
2023-01-01T05:20:16.743Z,100.00
2023-01-01T05:21:24.439Z,100.00
2023-01-01T05:22:26.687Z,100.00
2023-01-01T05:23:29.627Z,100.00
2023-01-01T05:24:36.312Z,100.00
2023-01-01T05:25:38.704Z,100.00
2023-01-01T05:26:43.488Z,100.00
2023-01-01T05:27:45.734Z,100.00
2023-01-01T05:28:48.532Z,100.00
2023-01-01T05:29:50.760Z,100.00
2023-01-01T05:30:54.089Z,100.00
2023-01-01T05:31:56.362Z,100.00
2023-01-01T05:32:58.659Z,100.00
2023-01-01T05:35:03.512Z,100.00
2023-01-01T05:36:07.750Z,100.00
2023-01-01T05:37:09.968Z,100.00
2023-01-01T05:38:12.256Z,100.00
2023-01-01T05:39:14.499Z,100.00
2023-01-01T05:40:16.742Z,100.00
2023-01-01T05:41:20.207Z,100.00
2023-01-01T05:42:22.414Z,100.00
2023-01-01T05:43:24.804Z,100.00
2023-01-01T05:44:27.051Z,100.00
2023-01-01T05:45:29.290Z,100.00
2023-01-01T05:46:32.191Z,100.00
2023-01-01T05:47:36.983Z,100.00
2023-01-01T05:48:39.310Z,100.00
2023-01-01T05:49:41.627Z,100.00
2023-01-01T05:50:43.943Z,100.00
2023-01-01T05:51:46.141Z,100.00
2023-01-01T05:52:48.487Z,100.00
2023-01-01T05:53:51.475Z,100.00
2023-01-01T05:54:53.736Z,100.00
2023-01-01T05:55:55.955Z,100.00
2023-01-01T05:56:58.625Z,100.00
2023-01-01T05:58:00.894Z,100.00
2023-01-01T05:59:03.140Z,100.00
2023-01-01T06:00:06.046Z,100.00
2023-01-01T06:01:20.847Z,100.00
2023-01-01T06:02:23.443Z,100.00
2023-01-01T06:03:25.653Z,100.00
2023-01-01T06:04:27.891Z,100.00
2023-01-01T06:05:30.174Z,100.00
2023-01-01T06:06:35.310Z,100.00
2023-01-01T06:07:37.535Z,100.00
2023-01-01T06:08:40.379Z,100.00
2023-01-01T06:09:43.019Z,100.00
2023-01-01T06:10:45.647Z,100.00
2023-01-01T06:11:48.391Z,100.00
2023-01-01T06:12:50.617Z,100.00
2023-01-01T06:13:54.372Z,100.00
2023-01-01T06:14:56.830Z,100.00
2023-01-01T06:16:01.564Z,100.00
2023-01-01T06:17:03.931Z,100.00
2023-01-01T06:18:06.149Z,100.00
2023-01-01T06:19:08.595Z,100.00
2023-01-01T06:20:11.094Z,100.00
2023-01-01T06:21:19.070Z,100.00
2023-01-01T06:22:21.316Z,100.00
2023-01-01T06:23:23.538Z,100.00
2023-01-01T06:24:25.747Z,100.00
2023-01-01T06:25:27.951Z,100.00
2023-01-01T06:26:32.589Z,100.00
2023-01-01T06:27:36.746Z,100.00
2023-01-01T06:28:39.891Z,100.00
2023-01-01T06:29:42.143Z,100.00
2023-01-01T06:30:44.429Z,100.00
2023-01-01T06:31:46.676Z,100.00
2023-01-01T06:32:48.879Z,100.00
2023-01-01T06:33:51.874Z,100.00
2023-01-01T06:34:54.098Z,100.00
2023-01-01T06:35:56.417Z,100.00
2023-01-01T06:37:04.721Z,100.00
2023-01-01T06:38:09.114Z,100.00
2023-01-01T06:39:11.334Z,100.00
2023-01-01T06:40:14.642Z,100.00
2023-01-01T06:41:19.158Z,100.00
2023-01-01T06:42:21.393Z,100.00
2023-01-01T06:43:23.707Z,100.00
2023-01-01T06:44:25.905Z,100.00
2023-01-01T06:45:28.128Z,100.00
2023-01-01T06:46:35.696Z,100.00
2023-01-01T06:47:37.965Z,100.00
2023-01-01T06:48:41.951Z,100.00
2023-01-01T06:49:44.276Z,100.00
2023-01-01T06:50:46.583Z,100.00
2023-01-01T06:51:48.831Z,100.00
2023-01-01T06:52:51.136Z,100.00
2023-01-01T06:53:53.890Z,100.00
2023-01-01T06:54:56.101Z,100.00
2023-01-01T06:55:58.471Z,100.00
2023-01-01T06:57:00.796Z,100.00
2023-01-01T06:58:03.137Z,100.00
2023-01-01T06:59:05.370Z,100.00
2023-01-01T07:00:08.313Z,100.00
2023-01-01T07:01:16.643Z,100.00
2023-01-01T07:02:19.182Z,100.00
2023-01-01T07:03:21.530Z,100.00
2023-01-01T07:04:23.931Z,100.00
2023-01-01T07:05:26.136Z,100.00
2023-01-01T07:06:31.044Z,100.00
2023-01-01T07:07:36.035Z,100.00
2023-01-01T07:08:38.528Z,100.00
2023-01-01T07:09:40.982Z,100.00
2023-01-01T07:10:43.220Z,100.00
2023-01-01T07:11:45.448Z,100.00
2023-01-01T07:12:47.657Z,100.00
2023-01-01T07:13:50.110Z,100.00
2023-01-01T07:14:52.342Z,100.00
2023-01-01T07:15:55.347Z,100.00
2023-01-01T07:16:57.597Z,100.00
2023-01-01T07:17:59.850Z,100.00
2023-01-01T07:19:02.077Z,100.00
2023-01-01T07:20:04.629Z,100.00
2023-01-01T07:21:26.545Z,100.00
2023-01-01T07:22:30.890Z,100.00
2023-01-01T07:23:35.151Z,100.00
2023-01-01T07:24:38.876Z,100.00
2023-01-01T07:25:42.264Z,100.00
2023-01-01T07:26:45.023Z,100.00
2023-01-01T07:27:47.265Z,100.00
2023-01-01T07:28:49.525Z,100.00
2023-01-01T07:29:51.763Z,100.00
2023-01-01T07:30:54.292Z,100.00
2023-01-01T07:31:56.894Z,100.00
2023-01-01T07:32:59.125Z,100.00
2023-01-01T07:34:01.442Z,100.00
2023-01-01T07:35:04.069Z,100.00
2023-01-01T07:36:06.808Z,100.00
2023-01-01T07:37:09.420Z,100.00
2023-01-01T07:38:12.615Z,100.00
2023-01-01T07:39:14.877Z,100.00
2023-01-01T07:40:17.144Z,100.00
2023-01-01T07:41:19.425Z,100.00
2023-01-01T07:42:21.682Z,100.00
2023-01-01T07:43:24.012Z,100.00
2023-01-01T07:44:26.259Z,100.00
2023-01-01T07:45:28.575Z,100.00
2023-01-01T07:46:30.925Z,100.00
2023-01-01T07:47:33.759Z,100.00
2023-01-01T07:48:39.980Z,100.00
2023-01-01T07:49:42.551Z,100.00
2023-01-01T07:50:44.832Z,100.00
2023-01-01T07:51:47.604Z,100.00
2023-01-01T07:52:49.867Z,100.00
2023-01-01T07:53:52.119Z,100.00
2023-01-01T07:54:54.438Z,100.00
2023-01-01T07:55:57.485Z,100.00
2023-01-01T07:57:00.019Z,100.00
2023-01-01T07:58:03.050Z,100.00
2023-01-01T07:59:05.559Z,100.00
2023-01-01T08:00:09.587Z,100.00
2023-01-01T08:01:16.110Z,100.00
2023-01-01T08:02:18.700Z,100.00
2023-01-01T08:03:21.127Z,100.00
2023-01-01T08:04:23.522Z,100.00
2023-01-01T08:05:27.139Z,100.00
2023-01-01T08:06:29.687Z,100.00
2023-01-01T08:07:32.175Z,100.00
2023-01-01T08:08:35.049Z,100.00
2023-01-01T08:09:37.225Z,100.00
2023-01-01T08:10:39.497Z,100.00
2023-01-01T08:11:41.728Z,100.00
2023-01-01T08:12:44.295Z,100.00
2023-01-01T08:13:46.571Z,100.00
2023-01-01T08:14:48.847Z,100.00
2023-01-01T08:15:51.766Z,100.00
2023-01-01T08:16:54.053Z,100.00
2023-01-01T08:18:01.775Z,100.00
2023-01-01T08:19:04.385Z,100.00
2023-01-01T08:20:07.823Z,100.00
2023-01-01T08:21:10.042Z,100.00
2023-01-01T08:22:12.299Z,100.00
2023-01-01T08:23:14.635Z,100.00
2023-01-01T08:24:16.949Z,100.00
2023-01-01T08:25:19.227Z,100.00
2023-01-01T08:26:33.000Z,100.00
2023-01-01T08:27:35.946Z,100.00
2023-01-01T08:28:38.156Z,100.00
2023-01-01T08:29:40.368Z,100.00
2023-01-01T08:30:42.798Z,100.00
2023-01-01T08:31:45.195Z,100.00
2023-01-01T08:32:48.668Z,100.00
2023-01-01T08:33:51.309Z,100.00
2023-01-01T08:34:53.551Z,100.00
2023-01-01T08:35:55.984Z,100.00
2023-01-01T08:36:59.754Z,100.00
2023-01-01T08:38:01.985Z,100.00
2023-01-01T08:39:04.334Z,100.00
2023-01-01T08:40:07.403Z,100.00
2023-01-01T08:41:09.991Z,100.00
2023-01-01T08:42:12.774Z,100.00
2023-01-01T08:43:15.110Z,100.00
2023-01-01T08:44:17.332Z,100.00
2023-01-01T08:45:19.621Z,100.00
2023-01-01T08:46:21.912Z,100.00
2023-01-01T08:47:26.172Z,100.00
2023-01-01T08:48:30.963Z,100.00
2023-01-01T08:49:33.469Z,100.00
2023-01-01T08:50:37.379Z,100.00
2023-01-01T08:51:39.613Z,100.00
2023-01-01T08:52:41.822Z,100.00
2023-01-01T08:53:50.547Z,100.00
2023-01-01T08:54:53.566Z,100.00
2023-01-01T08:56:00.957Z,100.00
2023-01-01T08:57:04.876Z,100.00
2023-01-01T08:58:07.613Z,100.00
2023-01-01T08:59:09.860Z,100.00
2023-01-01T09:00:13.567Z,100.00
2023-01-01T09:01:15.817Z,100.00
2023-01-01T09:02:19.572Z,100.00
2023-01-01T09:03:22.496Z,100.00
2023-01-01T09:04:24.826Z,100.00
2023-01-01T09:05:27.010Z,100.00
2023-01-01T09:06:29.189Z,100.00
2023-01-01T09:07:31.431Z,100.00
2023-01-01T09:08:33.793Z,100.00
2023-01-01T09:09:36.072Z,100.00
2023-01-01T09:10:38.657Z,100.00
2023-01-01T09:11:53.676Z,100.00
2023-01-01T09:12:56.060Z,100.00
2023-01-01T09:13:58.312Z,100.00
2023-01-01T09:15:00.642Z,100.00
2023-01-01T09:16:02.984Z,100.00
2023-01-01T09:17:06.883Z,100.00
2023-01-01T09:18:10.280Z,100.00
2023-01-01T09:19:12.675Z,100.00
2023-01-01T09:20:15.059Z,100.00
2023-01-01T09:21:17.520Z,100.00
2023-01-01T09:22:19.780Z,100.00
2023-01-01T09:23:23.273Z,100.00
2023-01-01T09:24:25.577Z,100.00
2023-01-01T09:25:27.822Z,100.00
2023-01-01T09:26:30.337Z,100.00
2023-01-01T09:27:33.184Z,100.00
2023-01-01T09:28:36.347Z,100.00
2023-01-01T09:29:38.605Z,100.00
2023-01-01T09:30:40.869Z,100.00
2023-01-01T09:31:43.198Z,100.00
2023-01-01T09:32:45.474Z,100.00
2023-01-01T09:33:47.740Z,100.00
2023-01-01T09:34:52.663Z,100.00
2023-01-01T09:35:54.990Z,100.00
2023-01-01T09:36:57.335Z,100.00
2023-01-01T09:37:59.661Z,100.00
2023-01-01T09:39:03.070Z,100.00
2023-01-01T09:40:05.704Z,100.00
2023-01-01T09:41:16.734Z,100.00
2023-01-01T09:42:32.448Z,100.00
2023-01-01T09:43:48.298Z,100.00
2023-01-01T09:45:23.877Z,100.00
2023-01-01T09:46:31.442Z,100.00
2023-01-01T09:47:41.255Z,100.00
2023-01-01T09:48:56.371Z,100.00
2023-01-01T09:50:07.040Z,100.00
2023-01-01T09:51:17.965Z,100.00
2023-01-01T09:52:21.249Z,100.00
2023-01-01T09:53:45.290Z,100.00
2023-01-01T09:55:00.851Z,100.00
2023-01-01T09:56:04.678Z,100.00
2023-01-01T09:57:16.316Z,100.00
2023-01-01T09:58:26.408Z,100.00
2023-01-01T09:59:28.728Z,100.00
2023-01-01T10:00:34.441Z,100.00
2023-01-01T10:01:48.602Z,100.00
2023-01-01T10:03:08.043Z,100.00
2023-01-01T10:04:28.486Z,100.00
2023-01-01T10:05:42.881Z,100.00
2023-01-01T10:06:55.308Z,100.00
2023-01-01T10:08:02.548Z,100.00
2023-01-01T10:09:33.693Z,100.00
2023-01-01T10:10:41.599Z,100.00
2023-01-01T10:12:15.772Z,100.00
2023-01-01T10:13:36.463Z,100.00
2023-01-01T10:14:45.599Z,100.00
2023-01-01T10:16:01.781Z,100.00
2023-01-01T10:17:20.914Z,100.00
2023-01-01T10:18:27.832Z,100.00
2023-01-01T10:19:32.787Z,100.00
2023-01-01T10:20:46.623Z,100.00
2023-01-01T10:21:50.378Z,100.00
2023-01-01T10:23:03.596Z,100.00
2023-01-01T10:24:12.836Z,100.00
2023-01-01T10:25:19.728Z,100.00
2023-01-01T10:26:26.547Z,100.00
2023-01-01T10:27:43.509Z,100.00
2023-01-01T10:29:03.218Z,100.00
2023-01-01T10:30:17.947Z,100.00
2023-01-01T10:31:34.861Z,100.00
2023-01-01T10:32:39.015Z,100.00
2023-01-01T10:33:41.505Z,100.00
2023-01-01T10:34:43.766Z,100.00
2023-01-01T10:35:49.924Z,100.00
2023-01-01T10:36:58.215Z,100.00
2023-01-01T10:38:01.779Z,100.00
2023-01-01T10:39:04.184Z,100.00
2023-01-01T10:40:20.835Z,100.00
2023-01-01T10:41:23.129Z,100.00
2023-01-01T10:42:26.120Z,100.00
2023-01-01T10:43:28.353Z,100.00
2023-01-01T10:44:34.339Z,100.00
2023-01-01T10:45:46.806Z,100.00
2023-01-01T10:46:51.764Z,100.00
2023-01-01T10:48:16.735Z,100.00
2023-01-01T10:49:18.935Z,100.00
2023-01-01T10:50:21.199Z,100.00
2023-01-01T10:51:24.826Z,100.00
2023-01-01T10:52:31.638Z,100.00
2023-01-01T10:53:43.859Z,100.00
2023-01-01T10:54:46.210Z,100.00
2023-01-01T10:55:50.835Z,100.00
2023-01-01T10:56:53.064Z,100.00
2023-01-01T10:57:55.381Z,100.00
2023-01-01T10:59:00.717Z,100.00
2023-01-01T11:00:18.904Z,100.00
2023-01-01T11:01:29.669Z,100.00
2023-01-01T11:02:32.734Z,100.00
2023-01-01T11:03:35.563Z,100.00
2023-01-01T11:04:37.836Z,100.00
2023-01-01T11:05:40.093Z,100.00
2023-01-01T11:06:45.626Z,100.00
2023-01-01T11:07:48.178Z,100.00
2023-01-01T11:08:53.357Z,100.00
2023-01-01T11:10:04.033Z,100.00
2023-01-01T11:11:06.958Z,100.00
2023-01-01T11:12:46.134Z,100.00
2023-01-01T11:13:41.060Z,100.00
2023-01-01T11:14:57.888Z,100.00
2023-01-01T11:16:00.750Z,100.00
2023-01-01T11:17:03.025Z,100.00
2023-01-01T11:18:15.369Z,100.00
2023-01-01T11:19:30.336Z,100.00
2023-01-01T11:20:33.501Z,100.00
2023-01-01T11:21:35.907Z,100.00
2023-01-01T11:22:42.139Z,100.00
2023-01-01T11:23:44.419Z,99.94
2023-01-01T11:25:00.888Z,98.76
2023-01-01T11:26:08.791Z,99.09
2023-01-01T11:27:20.468Z,98.05
2023-01-01T11:28:22.786Z,100.00
2023-01-01T11:29:28.127Z,95.68
2023-01-01T11:30:30.507Z,95.28
2023-01-01T11:31:40.049Z,95.24
2023-01-01T11:32:42.320Z,96.01
2023-01-01T11:33:53.089Z,96.11
2023-01-01T11:35:01.634Z,92.49
2023-01-01T11:36:06.290Z,91.93
2023-01-01T11:37:14.134Z,91.43
2023-01-01T11:38:25.876Z,90.28
2023-01-01T11:39:37.157Z,92.68
2023-01-01T11:40:46.805Z,89.90
2023-01-01T11:41:51.948Z,88.30
2023-01-01T11:42:59.445Z,89.66
2023-01-01T11:44:01.776Z,91.03
2023-01-01T11:45:25.952Z,91.15
2023-01-01T11:46:28.289Z,90.71
2023-01-01T11:47:39.705Z,87.41
2023-01-01T11:48:43.689Z,87.23
2023-01-01T11:49:52.875Z,87.56
2023-01-01T11:51:01.638Z,86.25
2023-01-01T11:52:35.770Z,84.95
2023-01-01T11:53:41.548Z,86.68
2023-01-01T11:54:45.437Z,84.76
2023-01-01T11:55:51.951Z,85.82
2023-01-01T11:57:00.529Z,86.34
2023-01-01T11:58:02.658Z,85.72
2023-01-01T11:59:16.223Z,86.06
2023-01-01T12:00:24.966Z,88.68
2023-01-01T12:01:46.946Z,85.36
2023-01-01T12:02:58.315Z,86.57
2023-01-01T12:04:13.399Z,89.30
2023-01-01T12:05:24.901Z,85.65
2023-01-01T12:06:36.960Z,85.54
2023-01-01T12:07:43.087Z,87.21
2023-01-01T12:08:54.228Z,87.58
2023-01-01T12:10:04.983Z,86.51
2023-01-01T12:11:44.638Z,88.32
2023-01-01T12:13:13.320Z,86.53
2023-01-01T12:14:22.818Z,85.34
2023-01-01T12:15:53.288Z,85.45
2023-01-01T12:17:05.392Z,85.18
2023-01-01T12:18:32.266Z,83.01
2023-01-01T12:19:48.139Z,82.24
2023-01-01T12:21:05.322Z,82.33
2023-01-01T12:22:15.981Z,81.41
2023-01-01T12:23:19.761Z,82.58
2023-01-01T12:24:22.308Z,84.28
2023-01-01T12:25:33.660Z,83.28
2023-01-01T12:27:10.480Z,84.72
2023-01-01T12:28:52.248Z,83.00
2023-01-01T12:30:09.688Z,83.16
2023-01-01T12:31:21.041Z,83.97
2023-01-01T12:32:48.955Z,83.60
2023-01-01T12:33:56.901Z,82.13
2023-01-01T12:35:24.358Z,82.83
2023-01-01T12:36:41.418Z,80.61
2023-01-01T12:38:01.718Z,81.55
2023-01-01T12:39:42.139Z,82.87
2023-01-01T12:41:17.857Z,83.84
2023-01-01T12:42:57.372Z,83.19
2023-01-01T12:44:28.236Z,83.43
2023-01-01T12:46:01.149Z,83.20
2023-01-01T12:47:35.172Z,82.62
2023-01-01T12:48:51.581Z,84.31
2023-01-01T12:50:07.616Z,83.17
2023-01-01T12:51:51.045Z,84.58
2023-01-01T12:53:22.397Z,83.60
2023-01-01T12:54:51.068Z,83.22
2023-01-01T12:56:10.297Z,82.76
2023-01-01T12:57:28.635Z,81.74
2023-01-01T12:58:42.181Z,83.41
2023-01-01T12:59:50.713Z,84.47
2023-01-01T13:01:06.378Z,85.30
2023-01-01T13:02:20.702Z,84.53
2023-01-01T13:03:33.607Z,85.40
2023-01-01T13:04:36.616Z,83.94
2023-01-01T13:05:43.772Z,85.52
2023-01-01T13:06:50.688Z,87.57
2023-01-01T13:07:59.714Z,86.96
2023-01-01T13:09:07.769Z,84.10
2023-01-01T13:10:34.165Z,83.71
2023-01-01T13:11:44.527Z,82.87
2023-01-01T13:12:47.916Z,82.63
2023-01-01T13:13:50.154Z,82.26
2023-01-01T13:14:52.439Z,83.39
2023-01-01T13:15:56.604Z,82.74
2023-01-01T13:16:59.020Z,81.60
2023-01-01T13:18:05.675Z,81.76
2023-01-01T13:19:25.673Z,80.04
2023-01-01T13:20:28.704Z,79.16
2023-01-01T13:21:32.694Z,80.22
2023-01-01T13:22:34.884Z,80.25
2023-01-01T13:23:40.239Z,82.43
2023-01-01T13:24:42.448Z,81.93
2023-01-01T13:25:45.733Z,79.90
2023-01-01T13:26:49.949Z,80.75
2023-01-01T13:27:58.064Z,81.29
2023-01-01T13:29:05.276Z,79.13
2023-01-01T13:30:36.876Z,79.15
2023-01-01T13:31:39.443Z,81.14
2023-01-01T13:33:17.605Z,81.03
2023-01-01T13:34:58.629Z,81.55
2023-01-01T13:36:11.215Z,81.26
2023-01-01T13:37:27.731Z,83.26
2023-01-01T13:38:49.418Z,83.95
2023-01-01T13:40:05.590Z,82.52
2023-01-01T13:41:36.877Z,82.60
2023-01-01T13:42:59.214Z,83.33
2023-01-01T13:44:04.589Z,81.82
2023-01-01T13:47:27.340Z,83.07
2023-01-01T13:48:50.955Z,84.60
2023-01-01T13:50:12.031Z,84.54
2023-01-01T13:52:03.395Z,85.45
2023-01-01T13:53:29.789Z,83.67
2023-01-01T13:55:09.741Z,83.31
2023-01-01T13:56:35.336Z,83.54
2023-01-01T13:57:43.431Z,83.95
2023-01-01T13:59:06.162Z,84.30
2023-01-01T14:00:17.682Z,86.62
2023-01-01T14:01:35.768Z,83.94
2023-01-01T14:02:46.295Z,82.34
2023-01-01T14:03:53.789Z,83.01
2023-01-01T14:05:17.169Z,81.91
2023-01-01T14:06:32.479Z,83.15
2023-01-01T14:07:53.097Z,83.81
2023-01-01T14:09:05.871Z,83.93
2023-01-01T14:10:13.857Z,84.35
2023-01-01T14:11:21.970Z,85.99
2023-01-01T14:12:24.450Z,86.67
2023-01-01T14:13:38.872Z,85.90
2023-01-01T14:14:42.998Z,87.99
2023-01-01T14:15:53.069Z,92.11
2023-01-01T14:16:58.770Z,93.36
2023-01-01T14:18:04.727Z,92.44
2023-01-01T14:19:14.536Z,90.53
2023-01-01T14:20:21.646Z,89.00
2023-01-01T14:21:27.190Z,91.10
2023-01-01T14:22:29.851Z,91.05
2023-01-01T14:23:34.131Z,90.47
2023-01-01T14:24:43.582Z,89.85
2023-01-01T14:25:46.583Z,88.72
2023-01-01T14:26:50.068Z,87.61
2023-01-01T14:27:55.159Z,88.06
2023-01-01T14:28:59.086Z,88.89
2023-01-01T14:30:01.432Z,90.60
2023-01-01T14:31:11.339Z,89.82
2023-01-01T14:32:19.885Z,90.75
2023-01-01T14:33:30.314Z,91.68
2023-01-01T14:34:35.058Z,91.80
2023-01-01T14:35:37.356Z,92.39
2023-01-01T14:36:52.531Z,92.26
2023-01-01T14:37:55.749Z,93.11
2023-01-01T14:39:02.919Z,94.52
2023-01-01T14:40:07.937Z,96.02
2023-01-01T14:41:28.952Z,99.44
2023-01-01T14:42:32.219Z,100.00
2023-01-01T14:43:38.930Z,100.00
2023-01-01T14:44:46.348Z,100.00
2023-01-01T14:45:49.659Z,100.00